Time;durP1;ratioP1;P1;durP2;ratioP2;P2;SDS_P1;SDS_P2;PMS_P1;PMS_P2;Temp;Humidity;BMP_temperature;BMP_pressure;BME280_temperature;BME280_humidity;BME280_pressure;Samples;Min_cycle;Max_cycle;Signal;HPM_P1;HPM_P2
2023/04/26 00:01:57;;;;;;;7.30;3.80;;;;;;;9.83;100.00;99679.71;108995;1256;74546;-58
2023/04/26 00:04:24;;;;;;;6.10;4.10;;;;;;;9.74;100.00;99681.14;108904;1257;61505;-57
2023/04/26 00:06:52;;;;;;;6.90;4.30;;;;;;;9.66;100.00;99684.59;108983;1257;61394;-57
2023/04/26 00:09:19;;;;;;;6.60;3.70;;;;;;;9.57;100.00;99679.84;108869;1261;76162;-59
2023/04/26 00:11:46;;;;;;;7.90;4.30;;;;;;;9.49;100.00;99682.45;108930;1257;69081;-59
2023/04/26 00:14:13;;;;;;;5.00;3.00;;;;;;;9.41;100.00;99684.73;108968;1256;73723;-57
2023/04/26 00:16:40;;;;;;;6.80;4.30;;;;;;;9.33;100.00;99689.48;109034;1255;61129;-58
2023/04/26 00:19:08;;;;;;;8.00;4.70;;;;;;;9.22;100.00;99684.83;108896;1256;61290;-59
2023/04/26 00:21:35;;;;;;;8.00;4.20;;;;;;;9.12;100.00;99686.46;108872;1255;75421;-59
2023/04/26 00:24:04;;;;;;;5.50;3.60;;;;;;;9.00;100.00;99684.92;108880;1254;68898;-57
2023/04/26 00:26:33;;;;;;;6.00;3.70;;;;;;;8.91;100.00;99681.55;108934;1256;75088;-57
2023/04/26 00:29:00;;;;;;;7.00;3.80;;;;;;;8.83;100.00;99675.23;108912;1256;62915;-57
2023/04/26 00:31:28;;;;;;;7.90;4.10;;;;;;;8.77;100.00;99678.23;108840;1259;63203;-58
2023/04/26 00:33:55;;;;;;;6.90;4.60;;;;;;;8.73;100.00;99681.23;108967;1255;77365;-58
2023/04/26 00:36:22;;;;;;;8.30;4.40;;;;;;;8.70;100.00;99687.67;108912;1256;68057;-58
2023/04/26 00:38:49;;;;;;;8.40;4.10;;;;;;;8.70;100.00;99691.11;109019;1255;74792;-58
2023/04/26 00:41:16;;;;;;;8.50;4.60;;;;;;;8.67;100.00;99691.34;108905;1256;62829;-57
2023/04/26 00:43:44;;;;;;;6.70;3.70;;;;;;;8.63;100.00;99696.08;108821;1257;61848;-60
2023/04/26 00:46:11;;;;;;;6.30;4.10;;;;;;;8.60;100.00;99698.41;108937;1256;76872;-58
2023/04/26 00:48:38;;;;;;;7.80;5.00;;;;;;;8.58;100.00;99701.50;108938;1256;68099;-58
2023/04/26 00:51:06;;;;;;;7.60;4.80;;;;;;;8.54;100.00;99704.56;108864;1256;74831;-58
2023/04/26 00:53:34;;;;;;;5.90;4.00;;;;;;;8.55;100.00;99708.09;108799;1256;64129;-58
2023/04/26 00:56:01;;;;;;;9.80;3.90;;;;;;;8.52;100.00;99705.40;108937;1260;62396;-58
2023/04/26 00:58:28;;;;;;;6.10;3.40;;;;;;;8.49;100.00;99710.19;108844;1256;76754;-58
2023/04/26 01:00:55;;;;;;;6.50;4.30;;;;;;;8.46;100.00;99709.67;108860;1257;68890;-58
2023/04/26 01:03:23;;;;;;;7.10;4.50;;;;;;;8.44;100.00;99710.05;108898;1257;75065;-58
2023/04/26 01:05:51;;;;;;;8.90;4.90;;;;;;;8.40;100.00;99705.64;108730;1257;61844;-60
2023/04/26 01:08:19;;;;;;;11.20;4.60;;;;;;;8.38;100.00;99709.09;108833;1261;62416;-57
2023/04/26 01:10:50;;;;;;;7.70;3.90;;;;;;;8.31;100.00;99707.59;108898;1254;76991;-57
2023/04/26 01:13:17;;;;;;;8.30;4.30;;;;;;;8.26;100.00;99710.05;108846;1258;67893;-58
2023/04/26 01:15:46;;;;;;;6.80;4.30;;;;;;;8.20;100.00;99707.66;108771;1257;73153;-60
2023/04/26 01:18:13;;;;;;;6.40;4.80;;;;;;;8.15;100.00;99711.95;108871;1257;63705;-57
2023/04/26 01:20:41;;;;;;;6.60;4.50;;;;;;;8.10;100.00;99714.84;109096;1257;61949;-58
2023/04/26 01:23:10;;;;;;;7.50;4.10;;;;;;;8.03;100.00;99716.27;109085;1257;76580;-58
2023/04/26 01:25:37;;;;;;;6.90;4.30;;;;;;;7.96;100.00;99721.69;108791;1257;67985;-60
2023/04/26 01:28:04;;;;;;;7.90;4.50;;;;;;;7.90;100.00;99721.52;108836;1256;73686;-58
2023/04/26 01:30:32;;;;;;;7.00;4.50;;;;;;;7.85;100.00;99719.55;108896;1257;61154;-58
2023/04/26 01:33:02;;;;;;;9.00;4.10;;;;;;;7.81;100.00;99720.39;108935;1257;61347;-57
2023/04/26 01:35:29;;;;;;;7.30;3.90;;;;;;;7.78;100.00;99719.55;108885;1257;76811;-58
2023/04/26 01:37:56;;;;;;;7.20;4.10;;;;;;;7.75;100.00;99722.46;108910;1257;69153;-59
2023/04/26 01:40:23;;;;;;;8.60;4.50;;;;;;;7.72;100.00;99721.75;108894;1257;74751;-57
2023/04/26 01:42:50;;;;;;;8.60;5.20;;;;;;;7.69;100.00;99724.56;108889;1256;62929;-57
2023/04/26 01:45:17;;;;;;;7.40;4.70;;;;;;;7.66;100.00;99731.66;108866;1257;62710;-58
2023/04/26 01:48:03;;;;;;;6.60;4.20;;;;;;;7.61;100.00;99727.59;108835;1257;76619;-58
2023/04/26 01:50:31;;;;;;;10.50;4.30;;;;;;;7.56;100.00;99727.44;108915;1257;68217;-57
2023/04/26 01:52:58;;;;;;;7.50;4.70;;;;;;;7.52;100.00;99731.34;109027;1257;73956;-58
2023/04/26 01:55:25;;;;;;;7.60;4.70;;;;;;;7.48;100.00;99731.73;108847;1257;61474;-57
2023/04/26 01:57:52;;;;;;;7.80;4.60;;;;;;;7.45;100.00;99735.06;108932;1256;61398;-58
2023/04/26 02:00:19;;;;;;;6.70;4.20;;;;;;;7.43;100.00;99734.56;109063;1257;76876;-58
2023/04/26 02:02:48;;;;;;;8.50;3.60;;;;;;;7.43;100.00;99738.45;108928;1256;69043;-57
2023/04/26 02:05:15;;;;;;;5.70;4.00;;;;;;;7.43;100.00;99738.45;108859;1257;73489;-57
2023/04/26 02:07:42;;;;;;;7.30;4.30;;;;;;;7.43;100.00;99747.63;108871;1257;62532;-58
2023/04/26 02:10:09;;;;;;;5.90;4.40;;;;;;;7.41;100.00;99744.52;108902;1256;61552;-59
2023/04/26 02:12:36;;;;;;;7.50;4.90;;;;;;;7.39;100.00;99744.55;108950;1257;75717;-57
2023/04/26 02:15:05;;;;;;;6.90;4.20;;;;;;;7.37;100.00;99748.29;108941;1257;69110;-57
2023/04/26 02:17:33;;;;;;;6.50;3.90;;;;;;;7.34;100.00;99750.80;108884;1257;74969;-57
2023/04/26 02:20:00;;;;;;;7.30;3.60;;;;;;;7.33;100.00;99751.38;108945;1257;64161;-57
2023/04/26 02:22:28;;;;;;;7.00;4.50;;;;;;;7.32;100.00;99750.92;108912;1257;62327;-58
2023/04/26 02:24:55;;;;;;;7.50;5.00;;;;;;;7.31;100.00;99756.34;108890;1257;77081;-57
2023/04/26 02:27:26;;;;;;;7.80;4.80;;;;;;;7.32;100.00;99756.83;108931;1257;68153;-57
2023/04/26 02:29:53;;;;;;;8.00;4.60;;;;;;;7.35;100.00;99758.58;108913;1256;75079;-58
2023/04/26 02:32:20;;;;;;;10.30;4.50;;;;;;;7.36;100.00;99763.60;108845;1256;62880;-58
2023/04/26 02:34:48;;;;;;;8.70;3.80;;;;;;;7.41;100.00;99768.35;108781;1256;62422;-59
2023/04/26 02:37:15;;;;;;;7.30;4.70;;;;;;;7.48;100.00;99771.85;108805;1257;76789;-58
2023/04/26 02:39:42;;;;;;;6.80;4.30;;;;;;;7.59;100.00;99777.77;108887;1257;67293;-57
2023/04/26 02:42:09;;;;;;;9.00;4.60;;;;;;;7.69;100.00;99777.27;108876;1256;74950;-57
2023/04/26 02:44:38;;;;;;;9.40;4.30;;;;;;;7.80;100.00;99780.72;108887;1257;64124;-59
2023/04/26 02:47:06;;;;;;;8.40;4.60;;;;;;;7.91;100.00;99783.25;108813;1256;61340;-58
2023/04/26 02:49:33;;;;;;;8.80;4.40;;;;;;;8.04;100.00;99784.35;108885;1256;76748;-58
2023/04/26 02:52:01;;;;;;;6.90;4.20;;;;;;;8.21;100.00;99783.48;108959;1256;69034;-58
2023/04/26 02:54:28;;;;;;;8.00;4.10;;;;;;;8.43;100.00;99786.00;108856;1256;74111;-57
2023/04/26 02:56:56;;;;;;;9.10;4.40;;;;;;;8.71;100.00;99782.71;108891;1256;63788;-63
2023/04/26 02:59:24;;;;;;;9.10;4.00;;;;;;;9.05;100.00;99786.75;108960;1256;62806;-58
2023/04/26 03:01:51;;;;;;;11.20;4.00;;;;;;;9.41;100.00;99792.59;108864;1257;76749;-57
2023/04/26 03:04:18;;;;;;;6.70;4.60;;;;;;;9.77;100.00;99792.02;108932;1257;69112;-58
2023/04/26 03:06:45;;;;;;;8.50;4.50;;;;;;;10.05;100.00;99793.64;108895;1257;74966;-58
2023/04/26 03:09:12;;;;;;;10.40;4.40;;;;;;;10.26;100.00;99797.66;108800;1257;61667;-61
2023/04/26 03:11:40;;;;;;;7.70;4.30;;;;;;;10.47;100.00;99799.35;108878;1257;61217;-58
2023/04/26 03:14:07;;;;;;;7.50;3.90;;;;;;;10.70;100.00;99797.37;108918;1257;76746;-58
2023/04/26 03:16:40;;;;;;;7.80;4.20;;;;;;;11.02;100.00;99804.04;108976;1256;68170;-58
2023/04/26 03:19:07;;;;;;;6.30;3.90;;;;;;;11.37;100.00;99803.27;108822;1257;74923;-62
2023/04/26 03:21:35;;;;;;;5.30;3.70;;;;;;;11.81;100.00;99791.88;108926;1257;62187;-57
2023/04/26 03:24:02;;;;;;;6.40;3.60;;;;;;;12.38;100.00;99788.45;108848;1254;61455;-57
2023/04/26 03:26:30;;;;;;;5.80;3.20;;;;;;;12.95;100.00;99780.67;108886;1257;75824;-57
2023/04/26 03:28:57;;;;;;;9.20;3.60;;;;;;;13.66;100.00;99779.29;108916;1255;68595;-63
2023/04/26 03:31:24;;;;;;;5.10;3.10;;;;;;;14.49;100.00;99777.73;108865;1256;75413;-58
2023/04/26 03:33:51;;;;;;;6.90;3.50;;;;;;;15.35;100.00;99764.10;108913;1257;61326;-58
2023/04/26 03:36:19;;;;;;;8.80;3.20;;;;;;;16.17;100.00;99756.10;108874;1255;61239;-58
2023/04/26 03:38:46;;;;;;;8.10;3.30;;;;;;;16.86;100.00;99744.30;108873;1256;75445;-61
2023/04/26 03:41:13;;;;;;;5.80;3.20;;;;;;;17.54;100.00;99730.97;108885;1255;69405;-58
2023/04/26 03:43:40;;;;;;;9.00;3.40;;;;;;;18.25;100.00;99724.80;108780;1256;72845;-58
2023/04/26 03:46:07;;;;;;;6.50;3.50;;;;;;;18.89;100.00;99722.95;108909;1255;62478;-59
2023/04/26 03:48:35;;;;;;;5.10;2.90;;;;;;;19.60;100.00;99720.65;108881;1255;61086;-58
2023/04/26 03:51:02;;;;;;;5.10;3.00;;;;;;;20.28;100.00;99719.19;108940;1256;76698;-63
2023/04/26 03:53:29;;;;;;;7.70;3.40;;;;;;;20.79;100.00;99722.52;108890;1256;68401;-58
2023/04/26 03:55:57;;;;;;;6.10;3.40;;;;;;;21.21;100.00;99717.32;108885;1257;74712;-59
2023/04/26 03:58:24;;;;;;;7.80;3.50;;;;;;;21.61;100.00;99719.36;108834;1256;60670;-58
2023/04/26 04:00:54;;;;;;;5.10;2.60;;;;;;;21.97;100.00;99723.55;108947;1255;62296;-59
2023/04/26 04:03:22;;;;;;;5.20;3.10;;;;;;;22.26;100.00;99726.23;108833;1256;76704;-64
2023/04/26 04:05:50;;;;;;;6.10;3.10;;;;;;;22.42;100.00;99730.34;108948;1256;67771;-59
2023/04/26 04:08:17;;;;;;;4.90;3.20;;;;;;;22.48;100.00;99729.88;108917;1256;74318;-58
2023/04/26 04:10:44;;;;;;;6.00;3.10;;;;;;;22.69;100.00;99727.16;109047;1254;62662;-59
2023/04/26 04:13:11;;;;;;;7.90;3.20;;;;;;;22.88;99.68;99733.45;108818;1255;62861;-62
2023/04/26 04:15:39;;;;;;;6.40;2.90;;;;;;;23.03;96.35;99740.70;108836;1257;75674;-62
2023/04/26 04:18:06;;;;;;;5.40;3.30;;;;;;;23.10;91.78;99752.39;108926;1256;69280;-59
2023/04/26 04:20:33;;;;;;;4.40;3.10;;;;;;;23.12;89.00;99757.17;108896;1257;73515;-59
2023/04/26 04:23:03;;;;;;;5.10;2.60;;;;;;;23.18;89.13;99756.44;108916;1255;61473;-59
2023/04/26 04:25:31;;;;;;;4.40;3.20;;;;;;;23.40;86.14;99755.28;108831;1255;62785;-60
2023/04/26 04:28:01;;;;;;;6.30;3.30;;;;;;;23.59;83.14;99749.10;108876;1257;75767;-59
2023/04/26 04:30:29;;;;;;;6.00;3.20;;;;;;;23.79;78.23;99750.25;108926;1255;69151;-59
2023/04/26 04:32:59;;;;;;;5.10;3.30;;;;;;;23.95;75.99;99751.73;108862;1254;73719;-59
2023/04/26 04:35:32;;;;;;;5.60;2.80;;;;;;;24.19;74.23;99751.80;108793;1255;61021;-59
2023/04/26 04:38:02;;;;;;;5.00;2.80;;;;;;;24.46;68.28;99747.70;108744;1255;60918;-59
2023/04/26 04:40:29;;;;;;;8.60;2.70;;;;;;;24.67;65.67;99755.73;108857;1257;76905;-58
2023/04/26 04:42:56;;;;;;;4.90;3.00;;;;;;;24.84;62.89;99755.21;108870;1256;68974;-59
2023/04/26 04:45:25;;;;;;;4.60;2.50;;;;;;;25.02;60.62;99753.50;108806;1255;74051;-60
2023/04/26 04:47:55;;;;;;;4.50;2.20;;;;;;;25.29;56.73;99752.37;108806;1255;61289;-59
2023/04/26 04:50:22;;;;;;;3.50;2.20;;;;;;;25.49;52.99;99750.81;108829;1256;61861;-58
2023/04/26 04:52:49;;;;;;;4.00;2.50;;;;;;;25.63;52.82;99754.52;108916;1255;76947;-59
2023/04/26 04:55:16;;;;;;;5.50;2.40;;;;;;;25.79;50.82;99758.65;108787;1258;69092;-59
2023/04/26 04:57:43;;;;;;;5.00;2.60;;;;;;;25.95;51.55;99762.05;108858;1255;73508;-58
2023/04/26 05:00:11;;;;;;;4.60;2.40;;;;;;;26.19;49.27;99761.39;108772;1255;61110;-59
2023/04/26 05:03:01;;;;;;;5.60;2.90;;;;;;;26.54;47.18;99758.60;108799;1256;61400;-61
2023/04/26 05:05:29;;;;;;;5.90;2.50;;;;;;;26.85;46.13;99758.39;108927;1256;75670;-58
2023/04/26 05:07:57;;;;;;;5.90;2.70;;;;;;;27.17;44.46;99759.98;108843;1257;69437;-58
2023/04/26 05:10:25;;;;;;;7.40;2.80;;;;;;;27.52;42.74;99759.26;108852;1256;74522;-59
2023/04/26 05:12:52;;;;;;;6.00;2.50;;;;;;;27.79;41.21;99763.05;108918;1255;61891;-61
2023/04/26 05:15:19;;;;;;;3.90;2.60;;;;;;;27.96;40.09;99762.33;108850;1256;59026;-59
2023/04/26 05:17:46;;;;;;;5.60;2.50;;;;;;;28.03;39.75;99767.55;108828;1255;75671;-59
2023/04/26 05:20:20;;;;;;;4.70;2.70;;;;;;;28.16;39.16;99766.10;108947;1256;68436;-58
2023/04/26 05:22:48;;;;;;;5.10;2.60;;;;;;;28.17;37.85;99769.57;108840;1255;73764;-58
2023/04/26 05:25:16;;;;;;;5.50;2.40;;;;;;;28.11;37.89;99773.50;108900;1256;62162;-58
2023/04/26 05:27:46;;;;;;;5.60;2.60;;;;;;;28.08;37.82;99773.05;108859;1255;62719;-59
2023/04/26 05:30:46;;;;;;;8.20;2.80;;;;;;;28.21;38.06;99769.30;108601;1255;75723;-60
2023/04/26 05:33:32;;;;;;;5.00;3.20;;;;;;;28.64;37.91;99769.06;108833;1256;68417;-58
2023/04/26 05:36:14;;;;;;;8.70;3.60;;;;;;;28.98;36.14;99760.29;108848;1257;66027;-62
2023/04/26 05:38:41;;;;;;;6.70;3.10;;;;;;;29.24;35.76;99761.39;108863;1257;62457;-58
2023/04/26 05:41:08;;;;;;;5.90;3.30;;;;;;;29.49;35.08;99760.21;108891;1256;61855;-61
2023/04/26 05:43:36;;;;;;;5.80;3.30;;;;;;;29.79;34.74;99754.52;108813;1259;76866;-58
2023/04/26 05:46:04;;;;;;;5.20;3.30;;;;;;;30.12;34.18;99752.36;108846;1255;59464;-57
2023/04/26 05:48:31;;;;;;;5.20;3.00;;;;;;;30.47;33.61;99757.13;108824;1256;66082;-58
2023/04/26 05:50:58;;;;;;;6.40;3.90;;;;;;;30.85;32.78;99757.30;108906;1255;59027;-58
2023/04/26 05:53:25;;;;;;;5.30;3.10;;;;;;;31.16;31.95;99752.30;108893;1254;58892;-58
2023/04/26 05:55:52;;;;;;;6.50;3.10;;;;;;;31.34;30.72;99752.31;108941;1255;68163;-58
2023/04/26 05:58:19;;;;;;;4.40;2.50;;;;;;;31.30;30.15;99752.56;108832;1256;59477;-58
2023/04/26 06:00:46;;;;;;;6.50;3.40;;;;;;;31.16;30.10;99757.39;108882;1254;65888;-59
2023/04/26 06:03:13;;;;;;;4.20;3.00;;;;;;;30.99;30.13;99755.34;108783;1258;59035;-61
2023/04/26 06:05:41;;;;;;;8.70;3.90;;;;;;;30.77;30.20;99759.19;108861;1256;62447;-58
2023/04/26 06:08:08;;;;;;;4.70;3.50;;;;;;;30.59;30.68;99760.95;108939;1256;66791;-58
2023/04/26 06:10:36;;;;;;;6.50;3.50;;;;;;;30.56;30.92;99765.92;108936;1255;60848;-58
2023/04/26 06:13:03;;;;;;;5.00;2.80;;;;;;;30.62;30.71;99767.69;108941;1256;65937;-61
2023/04/26 06:15:32;;;;;;;4.70;2.30;;;;;;;30.74;30.81;99772.44;108867;1255;58982;-58
2023/04/26 06:18:00;;;;;;;4.30;2.80;;;;;;;30.91;30.32;99772.67;108893;1255;59042;-58
2023/04/26 06:20:27;;;;;;;4.40;2.90;;;;;;;31.00;30.51;99773.30;108876;1256;66730;-60
2023/04/26 06:22:54;;;;;;;5.30;2.60;;;;;;;31.06;30.14;99775.80;108946;1255;60355;-59
2023/04/26 06:25:21;;;;;;;6.30;2.50;;;;;;;31.02;29.57;99777.98;108853;1256;65920;-60
2023/04/26 06:27:48;;;;;;;5.10;2.40;;;;;;;31.12;29.73;99781.55;108801;1256;58959;-60
2023/04/26 06:30:16;;;;;;;4.40;2.40;;;;;;;31.13;29.24;99786.60;108933;1256;58991;-59
2023/04/26 06:32:45;;;;;;;5.50;2.50;;;;;;;30.93;29.40;99787.03;108814;1255;67002;-59
2023/04/26 06:35:13;;;;;;;3.90;2.20;;;;;;;30.84;29.67;99783.25;108827;1256;59498;-59
2023/04/26 06:37:40;;;;;;;6.00;2.50;;;;;;;30.89;29.59;99781.50;108885;1255;65117;-57
2023/04/26 06:40:09;;;;;;;4.30;2.80;;;;;;;30.84;28.96;99780.82;108855;1255;59437;-57
2023/04/26 06:42:37;;;;;;;4.60;2.30;;;;;;;30.84;29.13;99783.04;108811;1255;59092;-62
2023/04/26 06:45:31;;;;;;;4.10;2.70;;;;;;;31.09;29.64;99784.30;108793;1255;68461;-58
2023/04/26 06:48:00;;;;;;;5.60;2.70;;;;;;;31.51;29.88;99785.64;108863;1255;60758;-60
2023/04/26 06:50:28;;;;;;;4.80;2.40;;;;;;;31.75;28.27;99789.52;108772;1254;74661;-61
2023/04/26 06:52:55;;;;;;;5.10;2.30;;;;;;;31.84;28.01;99792.96;108902;1257;58893;-58
2023/04/26 06:55:22;;;;;;;5.40;2.10;;;;;;;31.92;26.99;99794.55;108962;1256;59466;-60
2023/04/26 06:57:49;;;;;;;4.40;1.90;;;;;;;31.87;26.90;99798.84;108915;1256;66755;-59
2023/04/26 07:00:17;;;;;;;3.80;1.90;;;;;;;31.81;26.76;99800.72;108913;1256;59445;-61
2023/04/26 07:02:44;;;;;;;3.80;2.00;;;;;;;31.59;26.60;99801.30;108879;1255;65986;-59
2023/04/26 07:05:12;;;;;;;5.60;2.20;;;;;;;31.39;26.75;99797.50;108880;1256;59020;-58
2023/04/26 07:07:39;;;;;;;4.20;2.00;;;;;;;31.32;27.62;99802.18;108911;1256;59334;-59
2023/04/26 07:10:08;;;;;;;6.00;2.20;;;;;;;31.41;28.35;99799.20;108925;1256;67046;-59
2023/04/26 07:12:35;;;;;;;8.10;2.30;;;;;;;31.62;28.89;99803.49;108808;1255;59713;-60
2023/04/26 07:15:05;;;;;;;4.10;2.00;;;;;;;31.78;29.01;99803.52;108926;1255;66005;-59
2023/04/26 07:17:32;;;;;;;5.60;2.40;;;;;;;31.77;28.04;99803.28;108944;1255;59229;-59
2023/04/26 07:19:59;;;;;;;4.30;2.50;;;;;;;31.52;27.41;99805.94;109085;1255;58984;-59
2023/04/26 07:22:26;;;;;;;5.40;2.50;;;;;;;31.29;28.06;99803.54;108825;1257;68143;-63
2023/04/26 07:24:53;;;;;;;5.30;2.80;;;;;;;31.34;28.70;99804.72;108949;1254;59570;-58
2023/04/26 07:27:21;;;;;;;5.10;2.50;;;;;;;31.41;28.67;99804.04;108875;1259;65189;-58
2023/04/26 07:29:48;;;;;;;3.80;2.10;;;;;;;31.28;28.64;99803.59;108917;1255;59005;-58
2023/04/26 07:32:15;;;;;;;4.10;2.20;;;;;;;31.11;28.67;99805.29;108901;1255;59463;-59
2023/04/26 07:34:42;;;;;;;4.40;2.40;;;;;;;30.94;28.74;99803.05;109029;1256;68126;-59
2023/04/26 07:37:09;;;;;;;5.40;2.90;;;;;;;30.67;28.87;99803.23;109120;1254;69270;-58
2023/04/26 07:39:36;;;;;;;5.00;2.80;;;;;;;30.45;28.75;99800.81;108915;1255;65950;-58
2023/04/26 07:42:03;;;;;;;4.70;2.40;;;;;;;30.45;28.91;99806.34;108929;1255;59412;-59
2023/04/26 07:44:30;;;;;;;5.40;2.10;;;;;;;30.54;28.54;99809.83;108931;1255;59428;-59
2023/04/26 07:46:57;;;;;;;6.00;2.60;;;;;;;30.35;28.38;99806.66;108903;1256;66789;-59
2023/04/26 07:49:24;;;;;;;4.20;2.10;;;;;;;30.08;28.22;99809.58;109097;1256;68000;-59
2023/04/26 07:51:51;;;;;;;5.40;1.90;;;;;;;29.80;28.49;99811.06;109115;1255;74812;-59
2023/04/26 07:54:18;;;;;;;4.90;3.00;;;;;;;29.70;28.97;99813.21;108862;1256;58971;-62
2023/04/26 07:56:45;;;;;;;5.30;2.40;;;;;;;29.77;29.13;99813.35;108880;1255;61482;-60
2023/04/26 07:59:12;;;;;;;4.30;1.90;;;;;;;29.93;29.05;99809.90;108939;1255;76629;-59
2023/04/26 08:01:40;;;;;;;5.10;2.30;;;;;;;30.09;28.37;99809.00;108914;1256;60680;-59
2023/04/26 08:04:07;;;;;;;4.20;2.10;;;;;;;30.27;28.41;99808.96;108866;1256;64840;-61
2023/04/26 08:06:35;;;;;;;4.90;1.90;;;;;;;30.44;27.58;99808.92;108853;1256;59066;-61
2023/04/26 08:09:03;;;;;;;4.70;1.80;;;;;;;30.56;27.70;99805.83;108892;1256;59400;-59
2023/04/26 08:11:31;;;;;;;3.80;1.80;;;;;;;30.61;27.12;99806.86;108926;1256;68228;-59
2023/04/26 08:13:58;;;;;;;6.70;2.20;;;;;;;30.47;27.21;99802.57;108918;1256;60389;-62
2023/04/26 08:16:25;;;;;;;4.40;2.20;;;;;;;30.38;26.70;99804.23;108860;1255;66269;-59
2023/04/26 08:18:53;;;;;;;5.90;2.20;;;;;;;30.22;26.08;99803.45;108871;1255;59461;-59
2023/04/26 08:21:20;;;;;;;6.20;2.50;;;;;;;30.03;26.18;99801.63;109077;1255;59135;-61
2023/04/26 08:23:47;;;;;;;4.10;2.40;;;;;;;29.83;27.10;99795.69;108931;1254;76687;-61
2023/04/26 08:26:14;;;;;;;4.10;2.20;;;;;;;29.52;27.75;99795.17;108907;1255;60836;-58
2023/04/26 08:28:41;;;;;;;5.10;2.40;;;;;;;29.45;27.59;99787.97;108877;1256;66021;-61
2023/04/26 08:31:08;;;;;;;4.30;2.10;;;;;;;29.40;27.74;99783.77;108930;1255;62611;-58
2023/04/26 08:33:36;;;;;;;5.00;2.10;;;;;;;29.35;27.96;99788.77;108933;1255;61528;-58
2023/04/26 08:36:03;;;;;;;4.00;2.10;;;;;;;29.29;28.18;99785.55;108878;1255;67934;-61
2023/04/26 08:38:31;;;;;;;6.90;2.70;;;;;;;29.15;27.94;99785.02;108908;1256;68520;-58
2023/04/26 08:41:00;;;;;;;3.80;2.30;;;;;;;28.91;28.70;99780.46;108865;1255;73711;-59
2023/04/26 08:43:28;;;;;;;5.20;2.20;;;;;;;28.75;29.19;99782.24;108892;1256;62421;-58
2023/04/26 08:45:55;;;;;;;5.50;2.70;;;;;;;28.83;28.81;99774.73;108966;1254;62897;-58
2023/04/26 08:48:22;;;;;;;4.90;2.30;;;;;;;28.91;28.49;99772.94;108792;1256;76582;-59
2023/04/26 08:50:50;;;;;;;3.80;2.30;;;;;;;28.84;28.38;99772.55;108933;1255;69216;-60
2023/04/26 08:53:17;;;;;;;4.20;2.10;;;;;;;28.51;28.44;99774.14;108833;1255;66199;-58
2023/04/26 08:55:48;;;;;;;6.50;2.30;;;;;;;28.02;28.47;99769.48;108924;1255;59000;-58
2023/04/26 08:58:16;;;;;;;;;;;;;;;27.59;29.44;99770.11;108957;1255;61458;-59
2023/04/26 09:00:46;;;;;;;3.40;2.30;;;;;;;27.45;30.40;99765.88;108935;1255;76751;-58
2023/04/26 09:03:13;;;;;;;3.90;2.20;;;;;;;27.61;31.14;99769.36;108946;1254;69661;-59
2023/04/26 09:05:44;;;;;;;2.90;2.00;;;;;;;27.88;31.00;99768.46;108919;1255;75046;-58
2023/04/26 09:08:17;;;;;;;;;;;;;;;28.08;30.37;99767.31;108944;1255;61589;-58
2023/04/26 09:10:44;;;;;;;7.50;3.20;;;;;;;28.08;30.26;99766.09;108962;1255;59314;-61
2023/04/26 09:13:11;;;;;;;3.90;2.30;;;;;;;27.85;29.99;99766.48;108889;1256;67051;-59
2023/04/26 09:15:39;;;;;;;4.70;2.20;;;;;;;27.46;30.21;99767.77;108926;1256;68153;-58
2023/04/26 09:18:19;;;;;;;4.60;2.10;;;;;;;27.01;31.54;99767.26;108615;1255;298454;-60
2023/04/26 09:21:01;;;;;;;5.80;2.80;;;;;;;26.92;31.62;99764.58;108887;1255;61225;-61
2023/04/26 09:23:28;;;;;;;5.70;3.20;;;;;;;27.09;31.35;99760.77;108909;1254;62490;-60
2023/04/26 09:25:55;;;;;;;4.20;2.50;;;;;;;27.20;31.15;99757.03;109090;1255;77075;-56
2023/04/26 09:28:22;;;;;;;7.10;2.80;;;;;;;27.37;30.73;99757.62;108963;1256;68575;-58
2023/04/26 09:30:50;;;;;;;6.50;3.10;;;;;;;27.32;30.54;99754.48;108874;1256;74791;-62
2023/04/26 09:33:18;;;;;;;5.50;2.90;;;;;;;27.11;31.46;99756.06;108912;1256;61387;-56
2023/04/26 09:35:45;;;;;;;4.40;2.30;;;;;;;26.69;31.62;99756.57;108931;1255;61251;-55
2023/04/26 09:38:14;;;;;;;5.00;2.40;;;;;;;26.42;32.44;99750.87;108941;1255;77012;-56
2023/04/26 09:40:45;;;;;;;6.80;2.30;;;;;;;26.64;33.13;99748.01;108996;1256;68928;-56
2023/04/26 09:43:14;;;;;;;7.20;2.50;;;;;;;27.06;31.44;99753.13;108909;1255;73801;-56
2023/04/26 09:45:51;;;;;;;5.50;2.50;;;;;;;27.31;30.44;99754.11;108873;1259;62297;-55
2023/04/26 09:48:22;;;;;;;4.80;2.50;;;;;;;27.45;30.09;99754.79;108919;1254;62345;-56
2023/04/26 09:51:07;;;;;;;6.60;2.10;;;;;;;27.64;30.53;99753.34;108870;1256;76786;-58
2023/04/26 09:53:45;;;;;;;8.20;2.50;;;;;;;28.03;29.38;99748.16;108963;1254;68573;-56
2023/04/26 09:56:17;;;;;;;5.10;2.00;;;;;;;28.30;28.43;99750.73;109007;1255;74631;-56
2023/04/26 09:58:57;;;;;;;4.30;1.80;;;;;;;28.45;28.37;99747.98;108873;1255;59491;-59
2023/04/26 10:01:25;;;;;;;3.20;2.00;;;;;;;28.38;27.90;99746.83;108929;1255;59253;-56
2023/04/26 10:03:52;;;;;;;5.00;2.50;;;;;;;27.98;27.99;99753.48;108946;1255;76756;-58
2023/04/26 10:06:20;;;;;;;4.40;1.90;;;;;;;27.63;28.71;99752.83;108883;1255;67978;-59
2023/04/26 10:08:47;;;;;;;3.50;1.60;;;;;;;27.42;28.80;99750.05;108804;1255;73758;-59
2023/04/26 10:11:14;;;;;;;3.40;1.60;;;;;;;27.24;29.40;99752.16;109080;1256;61154;-58
2023/04/26 10:13:41;;;;;;;5.40;2.00;;;;;;;27.29;28.49;99753.80;108975;1255;62700;-58
2023/04/26 10:16:09;;;;;;;3.70;2.00;;;;;;;27.32;28.29;99749.81;108914;1256;76494;-61
2023/04/26 10:18:36;;;;;;;3.80;1.90;;;;;;;27.41;29.50;99747.16;108931;1255;69882;-61
2023/04/26 10:21:30;;;;;;;4.20;2.00;;;;;;;27.63;29.23;99750.47;109049;1254;74152;-59
2023/04/26 10:23:58;;;;;;;4.30;2.20;;;;;;;27.66;28.98;99746.64;108902;1255;61426;-59
2023/04/26 10:26:51;;;;;;;3.10;1.70;;;;;;;27.31;29.01;99746.63;108808;1254;62188;-60
2023/04/26 10:29:19;;;;;;;4.60;1.70;;;;;;;27.11;29.35;99739.89;108938;1256;75517;-59
2023/04/26 10:32:05;;;;;;;3.20;1.60;;;;;;;27.27;29.17;99747.88;108960;1255;68323;-58
2023/04/26 10:34:33;;;;;;;5.50;2.50;;;;;;;27.29;29.79;99747.65;108945;1255;74767;-59
2023/04/26 10:37:13;;;;;;;4.10;2.00;;;;;;;27.39;29.51;99740.27;108969;1255;62214;-58
2023/04/26 10:39:44;;;;;;;3.00;1.70;;;;;;;27.47;29.70;99744.47;108936;1255;62177;-59
2023/04/26 10:42:26;;;;;;;3.20;1.80;;;;;;;27.65;29.67;99740.90;108938;1255;75818;-58
2023/04/26 10:44:54;;;;;;;2.90;1.60;;;;;;;28.00;29.24;99737.40;108898;1255;69357;-61
2023/04/26 10:47:30;;;;;;;4.00;1.70;;;;;;;28.25;28.71;99738.09;108958;1256;73739;-58
2023/04/26 10:50:02;;;;;;;5.20;2.20;;;;;;;28.52;28.36;99743.25;108924;1255;59389;-59
2023/04/26 10:52:32;;;;;;;3.10;1.80;;;;;;;28.55;27.66;99743.80;108946;1255;62346;-58
2023/04/26 10:54:59;;;;;;;4.30;1.90;;;;;;;28.14;27.77;99747.30;108918;1256;77023;-58
2023/04/26 10:57:50;;;;;;;3.70;1.70;;;;;;;27.46;28.99;99746.04;108871;1255;67854;-58
2023/04/26 11:00:19;;;;;;;2.90;1.50;;;;;;;26.91;29.76;99747.92;108902;1256;74645;-58
2023/04/26 11:03:03;;;;;;;5.40;1.60;;;;;;;26.52;29.61;99742.98;108854;1256;61417;-60
2023/04/26 11:05:36;;;;;;;3.80;1.80;;;;;;;26.11;30.44;99743.50;108979;1255;62451;-59
2023/04/26 11:08:17;;;;;;;2.90;1.70;;;;;;;26.01;31.58;99742.07;108932;1259;75702;-58
2023/04/26 11:10:49;;;;;;;3.70;1.50;;;;;;;26.22;31.55;99739.38;108901;1256;68952;-58
2023/04/26 11:13:17;;;;;;;2.90;1.60;;;;;;;26.58;30.58;99736.75;108937;1255;74833;-58
2023/04/26 11:15:45;;;;;;;3.10;1.50;;;;;;;26.75;29.41;99740.91;108940;1255;61328;-58
2023/04/26 11:18:12;;;;;;;3.60;1.70;;;;;;;26.62;29.56;99735.91;108954;1255;61076;-58
2023/04/26 11:20:39;;;;;;;2.70;1.30;;;;;;;26.44;29.78;99738.38;108872;1256;76780;-60
2023/04/26 11:23:06;;;;;;;3.20;1.60;;;;;;;26.29;29.85;99741.00;109086;1254;68861;-58
2023/04/26 11:25:33;;;;;;;3.40;1.50;;;;;;;26.15;29.16;99737.45;108971;1254;74673;-58
2023/04/26 11:28:01;;;;;;;4.00;1.40;;;;;;;26.02;29.29;99738.35;109087;1255;62366;-57
2023/04/26 11:30:31;;;;;;;1.80;1.10;;;;;;;25.89;29.56;99734.48;108916;1255;62263;-60
2023/04/26 11:32:59;;;;;;;3.10;1.50;;;;;;;25.81;29.16;99731.66;108915;1255;76540;-58